Time;durP1;ratioP1;P1;durP2;ratioP2;P2;SDS_P1;SDS_P2;PMS_P1;PMS_P2;Temp;Humidity;BMP_temperature;BMP_pressure;BME280_temperature;BME280_humidity;BME280_pressure;Samples;Min_cycle;Max_cycle;Signal;HPM_P1;HPM_P2
2021/12/09 00:00:55;;;;;;;1.30;1.03;;;18.60;48.10;;;;;;4999184;28;20210;-24
2021/12/09 00:03:21;;;;;;;1.30;1.10;;;18.60;48.10;;;;;;4983951;28;20287;-24
2021/12/09 00:05:47;;;;;;;1.10;0.97;;;18.60;48.00;;;;;;4983536;28;20571;-22
2021/12/09 00:08:13;;;;;;;1.83;1.53;;;18.70;48.00;;;;;;4983999;28;20203;-24
2021/12/09 00:10:40;;;;;;;2.03;1.20;;;18.70;48.00;;;;;;5000780;28;20276;-22
2021/12/09 00:13:06;;;;;;;1.73;1.33;;;18.60;47.90;;;;;;5001148;28;20613;-24
2021/12/09 00:15:33;;;;;;;1.50;1.17;;;18.70;47.90;;;;;;5000819;28;20198;-26
2021/12/09 00:17:59;;;;;;;1.20;1.10;;;18.70;47.90;;;;;;4982619;28;20294;-24
2021/12/09 00:20:24;;;;;;;1.60;1.20;;;18.70;47.90;;;;;;4983406;28;20356;-23
2021/12/09 00:22:52;;;;;;;1.50;1.20;;;18.70;47.80;;;;;;4982982;28;20217;-24
2021/12/09 00:25:18;;;;;;;1.10;1.00;;;18.70;47.80;;;;;;5000491;28;20194;-22
2021/12/09 00:27:44;;;;;;;0.83;0.80;;;18.70;47.80;;;;;;5000358;28;20216;-23
2021/12/09 00:30:13;;;;;;;1.80;1.30;;;18.70;47.80;;;;;;4983500;28;20523;-23
2021/12/09 00:32:40;;;;;;;1.80;1.33;;;18.70;47.80;;;;;;5000527;28;20198;-23
2021/12/09 00:35:07;;;;;;;3.73;1.20;;;18.70;47.80;;;;;;4983074;28;20202;-25
2021/12/09 00:37:40;;;;;;;2.10;1.23;;;18.70;47.80;;;;;;4983675;28;20202;-23
2021/12/09 00:40:08;;;;;;;1.80;1.10;;;18.60;47.80;;;;;;4982515;28;20622;-27
2021/12/09 00:42:34;;;;;;;2.83;1.27;;;18.60;47.90;;;;;;4982591;28;20216;-25
2021/12/09 00:45:07;;;;;;;1.63;1.33;;;18.60;47.90;;;;;;4984089;28;20194;-23
2021/12/09 00:47:32;;;;;;;1.73;1.13;;;18.60;47.90;;;;;;4982693;28;20507;-25
2021/12/09 00:49:58;;;;;;;1.83;1.20;;;18.60;47.90;;;;;;4999933;28;20234;-27
2021/12/09 00:52:24;;;;;;;2.73;1.37;;;18.60;47.90;;;;;;4999818;28;20214;-23
2021/12/09 00:54:52;;;;;;;2.43;1.43;;;18.50;47.90;;;;;;4982874;28;20190;-26
2021/12/09 00:57:18;;;;;;;1.67;1.20;;;18.50;48.00;;;;;;4983579;28;20240;-23
2021/12/09 00:59:44;;;;;;;2.97;1.00;;;18.50;48.00;;;;;;4982833;28;20230;-24
2021/12/09 01:02:11;;;;;;;1.57;1.17;;;18.50;48.10;;;;;;4982501;28;20288;-25
2021/12/09 01:04:38;;;;;;;1.50;1.20;;;18.40;48.10;;;;;;4982254;28;20207;-24
2021/12/09 01:07:05;;;;;;;1.87;1.00;;;18.40;48.20;;;;;;4999125;28;20285;-23
2021/12/09 01:09:32;;;;;;;1.73;1.10;;;18.40;48.20;;;;;;4999505;28;20202;-27
2021/12/09 01:11:57;;;;;;;1.60;1.20;;;18.40;48.20;;;;;;4981248;28;20532;-25
2021/12/09 01:14:23;;;;;;;1.40;1.10;;;18.40;48.30;;;;;;4999402;28;20588;-25
2021/12/09 01:16:49;;;;;;;2.20;1.30;;;18.30;48.30;;;;;;4982924;28;20275;-25
2021/12/09 01:19:15;;;;;;;1.83;1.30;;;18.30;48.30;;;;;;4982680;28;20205;-25
2021/12/09 01:21:41;;;;;;;2.13;1.30;;;18.30;48.30;;;;;;4982223;28;20641;-25
2021/12/09 01:24:07;;;;;;;1.90;1.30;;;18.30;48.30;;;;;;4999155;28;20244;-26
2021/12/09 01:26:33;;;;;;;2.77;1.10;;;18.30;48.30;;;;;;4981487;28;20587;-23
2021/12/09 01:29:04;;;;;;;1.83;1.30;;;18.30;48.20;;;;;;4981801;28;20201;-26
2021/12/09 01:31:34;;;;;;;2.03;1.07;;;18.30;48.30;;;;;;4981851;28;20229;-26
2021/12/09 01:34:02;;;;;;;1.20;1.10;;;18.30;48.40;;;;;;4982585;28;20225;-22
2021/12/09 01:36:34;;;;;;;1.87;1.10;;;18.30;48.30;;;;;;4981964;28;20821;-25
2021/12/09 01:39:02;;;;;;;1.87;1.20;;;18.20;48.30;;;;;;4999185;28;20196;-24
2021/12/09 01:41:27;;;;;;;1.70;1.47;;;18.30;48.30;;;;;;4999278;28;20221;-20
2021/12/09 01:43:54;;;;;;;1.73;1.30;;;18.20;48.20;;;;;;4998852;28;20209;-25
2021/12/09 01:46:22;;;;;;;1.40;1.30;;;18.20;48.30;;;;;;4999074;28;20189;-24
2021/12/09 01:48:51;;;;;;;2.00;1.23;;;18.10;48.30;;;;;;4981962;28;20203;-26
2021/12/09 01:51:17;;;;;;;2.50;1.30;;;18.10;48.40;;;;;;4982679;28;20216;-24
2021/12/09 01:53:50;;;;;;;1.70;1.10;;;18.10;48.30;;;;;;4981659;28;20197;-27
2021/12/09 01:56:21;;;;;;;1.70;1.20;;;18.10;48.40;;;;;;4982025;28;20233;-24
2021/12/09 01:59:03;;;;;;;1.67;1.23;;;18.10;48.50;;;;;;4981980;28;20279;-26
2021/12/09 02:01:31;;;;;;;1.83;1.20;;;18.10;48.50;;;;;;4999014;28;20197;-23
2021/12/09 02:03:57;;;;;;;2.57;1.20;;;18.10;48.50;;;;;;4981725;28;20498;-25
2021/12/09 02:06:24;;;;;;;3.33;1.30;;;18.00;48.50;;;;;;4998686;28;20194;-23
2021/12/09 02:08:51;;;;;;;1.70;1.30;;;18.00;48.50;;;;;;4981395;28;20215;-25
2021/12/09 02:11:17;;;;;;;1.83;1.33;;;17.90;48.60;;;;;;4998682;28;20317;-24
2021/12/09 02:13:44;;;;;;;1.90;1.00;;;17.90;48.60;;;;;;4997948;28;20178;-25
2021/12/09 02:16:10;;;;;;;1.67;1.20;;;17.90;49.10;;;;;;4998708;28;20194;-24
2021/12/09 02:18:35;;;;;;;1.53;1.07;;;17.90;48.80;;;;;;4981411;28;20209;-21
2021/12/09 02:21:14;;;;;;;2.17;1.23;;;17.80;48.80;;;;;;4997906;28;20219;-24
2021/12/09 02:23:43;;;;;;;1.87;1.23;;;17.80;48.80;;;;;;4981536;28;20256;-24
2021/12/09 02:26:10;;;;;;;1.73;1.20;;;17.80;48.90;;;;;;4981154;28;20201;-24
2021/12/09 02:28:38;;;;;;;1.63;1.20;;;17.70;48.90;;;;;;4981594;28;20236;-24
2021/12/09 02:31:04;;;;;;;1.80;1.20;;;17.70;48.90;;;;;;4996890;28;20232;-26
2021/12/09 02:33:30;;;;;;;1.93;1.33;;;17.60;48.90;;;;;;4997619;28;20207;-22
2021/12/09 02:35:56;;;;;;;2.03;1.20;;;17.60;49.00;;;;;;4997876;28;20273;-23
2021/12/09 02:38:22;;;;;;;1.67;1.10;;;17.60;49.10;;;;;;4997033;28;20527;-24
2021/12/09 02:40:50;;;;;;;1.30;1.10;;;17.50;49.20;;;;;;4997812;28;20223;-25
2021/12/09 02:43:30;;;;;;;1.53;1.27;;;17.50;49.30;;;;;;4997841;28;20204;-23
2021/12/09 02:45:57;;;;;;;2.10;1.30;;;17.50;49.40;;;;;;4998138;28;20262;-24
2021/12/09 02:48:23;;;;;;;1.40;1.20;;;17.40;49.40;;;;;;4998144;28;20193;-24
2021/12/09 02:50:51;;;;;;;1.40;1.20;;;17.40;49.50;;;;;;4997618;28;20233;-23
2021/12/09 02:53:18;;;;;;;1.63;1.20;;;17.40;49.60;;;;;;4998036;28;20196;-26
2021/12/09 02:55:44;;;;;;;3.23;1.27;;;17.30;49.50;;;;;;4997341;28;20232;-24
2021/12/09 02:58:12;;;;;;;2.47;1.20;;;17.30;49.60;;;;;;4981521;28;20204;-23
2021/12/09 03:00:58;;;;;;;1.43;1.00;;;17.30;49.70;;;;;;4980646;28;20344;-24
2021/12/09 03:03:24;;;;;;;1.70;1.23;;;17.30;49.80;;;;;;4997810;28;20197;-25
2021/12/09 03:05:56;;;;;;;2.10;1.33;;;17.20;49.70;;;;;;4997598;28;20235;-26
2021/12/09 03:08:33;;;;;;;1.57;1.20;;;17.20;49.80;;;;;;4980891;28;20210;-22
2021/12/09 03:11:12;;;;;;;2.13;1.37;;;17.10;49.80;;;;;;4980633;28;20213;-22
2021/12/09 03:13:40;;;;;;;1.37;1.10;;;17.10;49.90;;;;;;4997466;28;20759;-24
2021/12/09 03:16:07;;;;;;;1.63;1.30;;;17.10;50.00;;;;;;4980937;28;20308;-23
2021/12/09 03:18:42;;;;;;;1.50;1.23;;;17.00;50.00;;;;;;4980430;28;20203;-26
2021/12/09 03:21:20;;;;;;;4.67;1.20;;;17.00;50.00;;;;;;4996951;28;20196;-24
2021/12/09 03:23:46;;;;;;;2.07;1.17;;;17.10;50.00;;;;;;4997342;28;20230;-23
2021/12/09 03:26:13;;;;;;;1.60;1.20;;;17.20;49.80;;;;;;4980806;28;20524;-22
2021/12/09 03:28:39;;;;;;;1.10;1.00;;;17.30;49.50;;;;;;4980726;28;20200;-23
2021/12/09 03:31:04;;;;;;;1.53;1.20;;;17.40;49.30;;;;;;4998147;28;20227;-27
2021/12/09 03:33:30;;;;;;;2.60;1.30;;;17.40;49.20;;;;;;4997681;28;20315;-22
2021/12/09 03:36:01;;;;;;;2.33;1.33;;;17.40;49.10;;;;;;4983554;28;20249;-23
2021/12/09 03:38:28;;;;;;;2.27;1.10;;;17.40;49.20;;;;;;5001988;28;20203;-23
2021/12/09 03:40:54;;;;;;;1.57;1.10;;;17.30;49.20;;;;;;5000170;28;20199;-23
2021/12/09 03:43:21;;;;;;;1.60;1.23;;;17.30;49.30;;;;;;4999719;28;20264;-22
2021/12/09 03:45:48;;;;;;;1.83;1.20;;;17.20;49.70;;;;;;5000084;28;20208;-25
2021/12/09 03:48:17;;;;;;;1.90;1.40;;;17.20;49.50;;;;;;5001155;28;20187;-25
2021/12/09 03:50:44;;;;;;;1.53;1.20;;;17.10;49.50;;;;;;4983895;28;20326;-28
2021/12/09 03:53:10;;;;;;;1.67;1.20;;;17.10;49.60;;;;;;5001308;28;20200;-25
2021/12/09 03:55:36;;;;;;;1.87;1.30;;;17.10;49.70;;;;;;5000946;28;20215;-23
2021/12/09 03:58:01;;;;;;;1.10;1.00;;;17.00;49.80;;;;;;4984299;28;20204;-23
2021/12/09 04:00:28;;;;;;;2.03;1.20;;;16.90;49.80;;;;;;5000707;28;20615;-26
2021/12/09 04:02:55;;;;;;;2.47;1.30;;;16.90;49.90;;;;;;5000560;28;20197;-22
2021/12/09 04:05:21;;;;;;;2.43;1.30;;;16.90;50.00;;;;;;4982808;28;20205;-20
2021/12/09 04:07:47;;;;;;;1.57;1.10;;;16.80;50.00;;;;;;4982387;28;20205;-24
2021/12/09 04:10:13;;;;;;;1.20;1.10;;;16.80;50.10;;;;;;5000937;28;20308;-25
2021/12/09 04:12:41;;;;;;;1.07;0.97;;;18.30;49.30;;;;;;4983566;28;20196;-23
2021/12/09 04:15:08;;;;;;;2.93;1.30;;;20.20;45.70;;;;;;4983575;28;20212;-25
2021/12/09 04:17:34;;;;;;;1.67;1.30;;;20.60;44.60;;;;;;5000675;28;20524;-24
2021/12/09 04:20:01;;;;;;;1.37;1.10;;;20.70;44.10;;;;;;5000265;28;20676;-24
2021/12/09 04:22:27;;;;;;;2.63;1.30;;;20.90;43.90;;;;;;5000658;28;20198;-25
2021/12/09 04:24:53;;;;;;;2.00;1.33;;;21.20;43.60;;;;;;4982797;28;20206;-24
2021/12/09 04:27:25;;;;;;;1.80;1.17;;;21.70;43.10;;;;;;4999889;28;20202;-25
2021/12/09 04:29:52;;;;;;;1.80;1.20;;;22.10;42.60;;;;;;4982327;28;20216;-25
2021/12/09 04:32:18;;;;;;;1.37;1.10;;;22.60;42.10;;;;;;4982841;28;20451;-25
2021/12/09 04:34:44;;;;;;;1.40;1.00;;;23.00;41.70;;;;;;4999890;28;20247;-24
2021/12/09 04:37:10;;;;;;;1.33;1.00;;;23.20;41.30;;;;;;5000243;28;20197;-26
2021/12/09 04:39:37;;;;;;;1.20;1.10;;;23.30;41.20;;;;;;4999994;28;20212;-23
2021/12/09 04:42:04;;;;;;;1.60;1.30;;;23.40;41.10;;;;;;4999673;28;20205;-26
2021/12/09 04:44:30;;;;;;;1.00;0.90;;;23.50;41.00;;;;;;4999348;28;20208;-25
2021/12/09 04:46:57;;;;;;;1.10;1.00;;;23.80;40.70;;;;;;4982528;28;20501;-25
2021/12/09 04:49:24;;;;;;;1.50;1.20;;;24.00;40.40;;;;;;4998956;28;20202;-27
2021/12/09 04:51:49;;;;;;;2.10;1.40;;;24.10;40.30;;;;;;4999425;28;20439;-24
2021/12/09 04:54:15;;;;;;;2.23;1.10;;;24.00;40.30;;;;;;4982020;28;20715;-24
2021/12/09 04:56:42;;;;;;;1.87;1.37;;;24.10;40.30;;;;;;4999130;28;20268;-26
2021/12/09 04:59:08;;;;;;;1.20;1.10;;;24.20;40.20;;;;;;5000044;28;20201;-24
2021/12/09 05:01:35;;;;;;;1.50;1.20;;;24.20;40.20;;;;;;4999372;28;20208;-25
2021/12/09 05:04:03;;;;;;;1.70;1.17;;;24.20;40.20;;;;;;4999884;28;20205;-26
2021/12/09 05:06:29;;;;;;;1.73;1.10;;;23.90;40.30;;;;;;4999435;28;20194;-24
2021/12/09 05:08:56;;;;;;;1.20;1.10;;;23.60;40.50;;;;;;5000059;28;20200;-25
2021/12/09 05:13:57;;;;;;;1.30;1.10;;;23.10;41.00;;;;;;4998877;28;20202;-23
2021/12/09 05:16:23;;;;;;;2.93;1.20;;;22.80;41.30;;;;;;4998560;28;20194;-23
2021/12/09 05:18:50;;;;;;;2.03;1.20;;;22.50;41.60;;;;;;4999163;28;20209;-24
2021/12/09 05:21:17;;;;;;;1.10;1.00;;;22.40;41.80;;;;;;4981621;28;20288;-23
2021/12/09 05:23:43;;;;;;;1.23;1.13;;;22.00;42.10;;;;;;4999013;28;20563;-23
2021/12/09 05:26:10;;;;;;;1.77;1.00;;;21.70;42.40;;;;;;4982067;28;20292;-25
2021/12/09 05:28:37;;;;;;;1.63;1.10;;;21.40;42.80;;;;;;4998592;28;20197;-25
2021/12/09 05:33:51;;;;;;;1.47;1.10;;;20.90;43.40;;;;;;4997713;28;20278;-25
2021/12/09 05:36:18;;;;;;;1.40;1.20;;;20.60;43.70;;;;;;4997645;28;20175;-24
2021/12/09 05:38:44;;;;;;;1.30;1.10;;;20.40;44.00;;;;;;4981242;28;20299;-25
2021/12/09 05:41:11;;;;;;;2.53;1.40;;;20.10;44.20;;;;;;4998311;28;20203;-26
2021/12/09 05:43:37;;;;;;;1.63;1.10;;;19.90;44.50;;;;;;4998749;28;20209;-24
2021/12/09 05:46:04;;;;;;;1.63;1.23;;;19.70;44.80;;;;;;4980965;28;20314;-24
2021/12/09 05:48:31;;;;;;;1.50;1.20;;;19.50;45.00;;;;;;4997041;28;20208;-24
2021/12/09 05:50:57;;;;;;;2.03;1.17;;;19.50;45.10;;;;;;4980651;28;20587;-24
2021/12/09 05:53:23;;;;;;;1.53;1.27;;;19.90;45.00;;;;;;4997704;28;20293;-26
2021/12/09 05:55:49;;;;;;;2.13;1.30;;;20.80;44.30;;;;;;4996329;28;20290;-25
2021/12/09 05:58:17;;;;;;;1.10;1.00;;;22.20;43.00;;;;;;4996833;28;20289;-25
2021/12/09 06:00:43;;;;;;;1.50;1.10;;;23.30;41.70;;;;;;4996866;28;20241;-25
2021/12/09 06:03:09;;;;;;;1.70;1.20;;;24.00;40.70;;;;;;4997653;28;20205;-24
2021/12/09 06:05:35;;;;;;;2.50;1.50;;;24.20;40.20;;;;;;4996497;28;20518;-24
2021/12/09 06:08:02;;;;;;;2.00;1.23;;;24.20;40.10;;;;;;4996775;28;20201;-25
2021/12/09 06:10:28;;;;;;;1.90;1.03;;;24.20;40.00;;;;;;4996829;28;20230;-25
2021/12/09 06:12:53;;;;;;;2.03;1.20;;;24.10;40.00;;;;;;4997407;28;20211;-25
2021/12/09 06:15:19;;;;;;;1.77;1.23;;;24.10;40.10;;;;;;4979112;28;20212;-25
2021/12/09 06:17:45;;;;;;;1.87;1.20;;;24.20;40.00;;;;;;4996792;28;20301;-26
2021/12/09 06:20:11;;;;;;;1.10;1.00;;;24.30;39.90;;;;;;4978497;28;20272;-25
2021/12/09 06:22:37;;;;;;;2.03;1.20;;;24.50;39.80;;;;;;4995630;28;20225;-26
2021/12/09 06:25:03;;;;;;;1.57;1.17;;;24.40;39.70;;;;;;4996108;28;20244;-28
2021/12/09 06:27:29;;;;;;;2.40;1.10;;;24.30;40.00;;;;;;4996408;28;20201;-25
2021/12/09 06:29:55;;;;;;;1.97;1.00;;;24.10;40.00;;;;;;4996513;28;20214;-27
2021/12/09 06:32:21;;;;;;;4.13;1.30;;;23.80;40.20;;;;;;4995564;28;20255;-26
2021/12/09 06:34:47;;;;;;;2.90;1.47;;;23.90;40.40;;;;;;4995913;28;20175;-25
2021/12/09 06:37:13;;;;;;;1.87;1.30;;;23.70;40.40;;;;;;4995308;28;20506;-24
2021/12/09 06:39:39;;;;;;;3.47;1.30;;;23.50;40.60;;;;;;4995559;28;20602;-27
2021/12/09 06:42:06;;;;;;;2.03;1.20;;;23.30;40.80;;;;;;4995737;28;20205;-24
2021/12/09 06:44:31;;;;;;;1.67;1.30;;;23.00;41.10;;;;;;4994976;28;20211;-23
2021/12/09 06:46:58;;;;;;;1.80;1.50;;;22.70;41.30;;;;;;4994238;28;20297;-29
2021/12/09 06:49:24;;;;;;;2.90;1.40;;;22.50;41.60;;;;;;4996110;28;20217;-28
2021/12/09 06:51:51;;;;;;;2.10;1.30;;;22.20;41.90;;;;;;4978950;28;20225;-27
2021/12/09 06:54:17;;;;;;;2.87;1.70;;;21.90;42.20;;;;;;4978077;28;20201;-28
2021/12/09 06:56:42;;;;;;;2.70;1.47;;;21.70;42.60;;;;;;4994830;28;20201;-28
2021/12/09 06:59:08;;;;;;;3.17;1.63;;;21.50;42.80;;;;;;4978619;28;20201;-25
2021/12/09 07:01:35;;;;;;;2.80;1.50;;;21.40;43.00;;;;;;4995275;28;20259;-26
2021/12/09 07:04:02;;;;;;;3.77;1.70;;;21.30;43.10;;;;;;4978120;28;20196;-26
2021/12/09 07:06:28;;;;;;;4.17;1.70;;;21.40;43.10;;;;;;4994573;28;20786;-24
2021/12/09 07:08:59;;;;;;;3.30;1.70;;;21.50;42.90;;;;;;4995225;28;20342;-24
2021/12/09 07:11:24;;;;;;;2.93;1.73;;;21.80;42.80;;;;;;4999531;28;20236;-23
2021/12/09 07:13:50;;;;;;;3.10;1.90;;;22.30;42.40;;;;;;5000379;28;20216;-25
2021/12/09 07:16:16;;;;;;;3.27;1.70;;;22.80;41.90;;;;;;4999264;28;20201;-25
2021/12/09 07:18:42;;;;;;;3.97;1.77;;;23.50;41.30;;;;;;4982607;28;20474;-26
2021/12/09 07:21:09;;;;;;;3.00;2.00;;;23.90;40.70;;;;;;4998832;28;20280;-23
2021/12/09 07:23:35;;;;;;;2.97;2.00;;;24.40;40.20;;;;;;4999002;28;20198;-25
2021/12/09 07:26:01;;;;;;;3.00;2.00;;;24.60;39.80;;;;;;4999460;28;20211;-24
2021/12/09 07:28:27;;;;;;;4.40;1.80;;;24.90;39.70;;;;;;4999774;28;20210;-25
2021/12/09 07:30:53;;;;;;;3.50;1.87;;;25.00;39.50;;;;;;4982187;28;20272;-24
2021/12/09 07:33:19;;;;;;;3.00;2.10;;;24.80;39.60;;;;;;4998865;28;20185;-25
2021/12/09 07:35:45;;;;;;;3.70;1.90;;;24.60;39.80;;;;;;4998952;28;20197;-26
2021/12/09 07:38:11;;;;;;;3.80;2.00;;;24.50;39.90;;;;;;4981949;28;20213;-24
2021/12/09 07:40:37;;;;;;;4.93;2.20;;;24.30;40.00;;;;;;4999065;28;20602;-24
2021/12/09 07:43:04;;;;;;;4.00;2.40;;;24.10;40.20;;;;;;4998996;28;20194;-26
2021/12/09 07:45:30;;;;;;;6.47;2.07;;;23.80;40.40;;;;;;4998591;28;20201;-26
2021/12/09 07:47:57;;;;;;;4.37;2.27;;;23.60;40.70;;;;;;4998077;28;20208;-24
2021/12/09 07:50:28;;;;;;;3.23;1.80;;;23.30;41.10;;;;;;4980899;28;20222;-23
2021/12/09 07:52:55;;;;;;;4.70;2.10;;;23.00;41.30;;;;;;4999178;28;20202;-24
2021/12/09 07:55:21;;;;;;;3.90;1.80;;;22.80;41.50;;;;;;4981436;28;20205;-24
2021/12/09 07:57:51;;;;;;;3.33;1.93;;;22.60;41.80;;;;;;4998022;28;20493;-24
2021/12/09 08:00:29;;;;;;;4.73;2.00;;;22.30;42.10;;;;;;4999448;28;20494;-27
2021/12/09 08:02:56;;;;;;;4.30;2.27;;;22.10;42.80;;;;;;4999182;28;20206;-26
2021/12/09 08:05:23;;;;;;;3.50;1.97;;;21.90;42.60;;;;;;4998242;28;20204;-24
2021/12/09 08:07:48;;;;;;;4.87;2.00;;;21.60;42.80;;;;;;4998935;28;20563;-23
2021/12/09 08:10:16;;;;;;;4.20;2.10;;;21.30;43.10;;;;;;4998571;28;20280;-24
2021/12/09 08:12:43;;;;;;;5.73;1.97;;;21.10;43.40;;;;;;4998512;28;20212;-26
2021/12/09 08:15:10;;;;;;;3.07;2.00;;;20.90;43.70;;;;;;4997678;28;20204;-24
2021/12/09 08:20:07;;;;;;;5.10;1.93;;;20.70;44.10;;;;;;4997445;28;20192;-25
2021/12/09 08:22:35;;;;;;;5.03;2.13;;;21.00;43.90;;;;;;4981010;28;20288;-25
2021/12/09 08:25:01;;;;;;;5.47;1.80;;;21.60;43.40;;;;;;4998918;28;20602;-24
2021/12/09 08:27:28;;;;;;;5.30;1.90;;;22.50;42.60;;;;;;4982083;28;20178;-21
2021/12/09 08:29:54;;;;;;;3.67;2.20;;;23.40;41.70;;;;;;4999169;28;20212;-24
2021/12/09 08:32:20;;;;;;;6.30;2.10;;;24.20;40.80;;;;;;4998735;28;20231;-24
2021/12/09 08:34:46;;;;;;;3.63;1.80;;;24.70;40.10;;;;;;4982261;28;20301;-25
2021/12/09 08:37:12;;;;;;;3.27;1.70;;;24.90;39.80;;;;;;4999354;28;20198;-24
2021/12/09 08:39:38;;;;;;;3.47;1.80;;;24.70;39.70;;;;;;4998557;28;20194;-27
2021/12/09 08:42:05;;;;;;;3.07;1.83;;;24.50;40.00;;;;;;4998723;28;20259;-24
2021/12/09 08:44:30;;;;;;;2.77;1.97;;;24.60;40.00;;;;;;4997857;28;20234;-24
2021/12/09 08:47:02;;;;;;;5.10;1.77;;;24.60;40.00;;;;;;4997266;28;20595;-24
2021/12/09 08:49:28;;;;;;;3.07;1.83;;;24.90;39.90;;;;;;4996703;28;20209;-26
2021/12/09 08:51:53;;;;;;;2.63;1.83;;;24.70;39.90;;;;;;4996894;28;20226;-26
2021/12/09 08:54:21;;;;;;;2.83;1.77;;;24.60;39.90;;;;;;4997366;28;20187;-26
2021/12/09 08:56:51;;;;;;;5.03;1.80;;;24.50;40.00;;;;;;4997525;28;20260;-24
2021/12/09 08:59:18;;;;;;;4.53;1.90;;;24.40;40.10;;;;;;4996808;28;20197;-24
2021/12/09 09:01:44;;;;;;;4.23;2.10;;;24.20;40.30;;;;;;4979743;28;20585;-27
2021/12/09 09:04:10;;;;;;;3.13;1.83;;;23.90;40.60;;;;;;4997378;28;20224;-23
2021/12/09 09:06:37;;;;;;;3.90;2.07;;;23.70;40.70;;;;;;4997056;28;20198;-25
2021/12/09 09:09:07;;;;;;;2.97;2.00;;;23.50;41.00;;;;;;4998412;28;20284;-24
2021/12/09 09:11:33;;;;;;;3.57;1.93;;;23.20;41.20;;;;;;4979299;28;20295;-25
2021/12/09 09:13:58;;;;;;;4.23;2.40;;;23.00;41.40;;;;;;4980024;28;20198;-24
2021/12/09 09:16:29;;;;;;;3.03;2.00;;;22.80;42.10;;;;;;4997902;28;20198;-25
2021/12/09 09:18:57;;;;;;;2.30;1.90;;;22.60;41.90;;;;;;4996849;28;20194;-25
2021/12/09 09:21:23;;;;;;;2.93;1.80;;;22.30;42.20;;;;;;4996787;28;20529;-26
2021/12/09 09:23:51;;;;;;;2.87;1.90;;;22.10;42.40;;;;;;4996560;28;20762;-25
2021/12/09 09:26:17;;;;;;;2.43;1.70;;;22.00;42.70;;;;;;4996915;28;20213;-24
2021/12/09 09:28:43;;;;;;;1.97;1.77;;;21.70;42.80;;;;;;4997533;28;20206;-25
2021/12/09 09:31:09;;;;;;;2.20;1.70;;;21.60;43.00;;;;;;4996748;28;20225;-26
2021/12/09 09:33:35;;;;;;;2.53;1.80;;;21.50;43.10;;;;;;4978846;28;20224;-25
2021/12/09 09:36:01;;;;;;;3.33;2.00;;;21.60;43.20;;;;;;4979409;28;20485;-26
2021/12/09 09:38:30;;;;;;;2.53;1.80;;;21.80;42.90;;;;;;4996092;28;20212;-23
2021/12/09 09:41:07;;;;;;;2.53;1.70;;;22.30;42.60;;;;;;4979070;28;20198;-24
2021/12/09 09:43:56;;;;;;;3.00;1.50;;;23.10;41.80;;;;;;4996463;28;20499;-26
2021/12/09 09:46:30;;;;;;;1.90;1.60;;;24.00;41.00;;;;;;4996288;28;20288;-26
2021/12/09 09:48:59;;;;;;;3.33;1.67;;;24.60;40.20;;;;;;4979048;28;20202;-24
2021/12/09 09:51:27;;;;;;;3.40;1.83;;;25.10;39.80;;;;;;4996563;28;20288;-25
2021/12/09 09:53:53;;;;;;;3.17;1.80;;;25.60;39.40;;;;;;4979545;28;20747;-24
2021/12/09 09:56:22;;;;;;;2.03;1.70;;;25.90;39.00;;;;;;4996390;28;20205;-25
2021/12/09 09:59:00;;;;;;;2.97;1.90;;;25.80;39.00;;;;;;4996977;28;20205;-25
2021/12/09 10:01:28;;;;;;;3.17;1.70;;;25.50;39.10;;;;;;4995881;28;20194;-26
2021/12/09 10:04:09;;;;;;;2.63;1.97;;;25.30;39.30;;;;;;4996134;28;20201;-26
2021/12/09 10:06:36;;;;;;;2.93;1.83;;;25.40;39.40;;;;;;4979744;28;20214;-25
2021/12/09 10:09:06;;;;;;;3.10;1.60;;;25.10;39.50;;;;;;4996129;28;20198;-25
2021/12/09 10:11:33;;;;;;;3.53;1.93;;;24.90;39.70;;;;;;4995482;28;20340;-26
2021/12/09 10:14:18;;;;;;;4.93;2.00;;;24.70;39.90;;;;;;4996007;28;20728;-26
2021/12/09 10:16:45;;;;;;;3.20;1.83;;;24.40;40.20;;;;;;4979638;28;20227;-25
2021/12/09 10:19:18;;;;;;;3.50;1.70;;;23.90;40.60;;;;;;4995950;28;20207;-26
2021/12/09 10:21:44;;;;;;;2.77;1.40;;;23.60;41.00;;;;;;4995234;28;20193;-23
2021/12/09 10:24:10;;;;;;;4.83;1.80;;;23.30;41.20;;;;;;4994626;28;20573;-25
2021/12/09 10:26:39;;;;;;;3.53;1.80;;;23.00;41.50;;;;;;4995161;28;20603;-24
2021/12/09 10:29:08;;;;;;;3.33;1.80;;;22.80;41.80;;;;;;4979078;28;20723;-24
2021/12/09 10:31:45;;;;;;;5.30;1.80;;;22.60;42.10;;;;;;4995185;28;20312;-24
2021/12/09 10:34:42;;;;;;;2.60;1.70;;;22.30;42.30;;;;;;4979343;28;20203;-25
2021/12/09 10:37:23;;;;;;;4.00;1.67;;;22.00;42.60;;;;;;4978569;28;20495;-24
2021/12/09 10:39:53;;;;;;;2.90;1.77;;;21.70;42.90;;;;;;4995918;28;20208;-25
2021/12/09 10:42:22;;;;;;;3.33;1.47;;;21.50;43.10;;;;;;4995380;28;20224;-25
2021/12/09 10:44:55;;;;;;;6.30;1.77;;;21.40;43.30;;;;;;4977852;28;20292;-23
2021/12/09 10:47:36;;;;;;;3.17;1.57;;;21.30;43.50;;;;;;4996031;28;20209;-23
2021/12/09 10:50:18;;;;;;;4.30;2.10;;;21.40;43.60;;;;;;4996140;28;20587;-24
2021/12/09 10:52:51;;;;;;;3.97;2.03;;;21.60;43.30;;;;;;4978941;28;20216;-26
2021/12/09 10:55:27;;;;;;;3.63;1.70;;;22.00;43.00;;;;;;4978232;28;20205;-24
2021/12/09 10:58:16;;;;;;;3.63;1.80;;;22.60;42.50;;;;;;4978326;28;20233;-26
2021/12/09 11:00:46;;;;;;;3.33;1.90;;;23.30;42.10;;;;;;4996165;28;20554;-25
2021/12/09 11:03:32;;;;;;;6.60;1.80;;;23.90;41.40;;;;;;4995452;28;20568;-25
2021/12/09 11:06:32;;;;;;;3.30;2.00;;;24.40;40.80;;;;;;4996043;28;20229;-23
2021/12/09 11:09:00;;;;;;;7.27;2.27;;;24.50;40.50;;;;;;4962463;28;20233;-24
2021/12/09 11:11:33;;;;;;;4.83;2.23;;;24.70;40.20;;;;;;4988901;28;20488;-24
2021/12/09 11:14:11;;;;;;;2.53;1.87;;;24.60;40.20;;;;;;4989452;28;20286;-22
2021/12/09 11:16:43;;;;;;;3.87;2.10;;;24.60;40.20;;;;;;4972543;28;20475;-23
2021/12/09 11:19:34;;;;;;;4.33;2.10;;;24.40;40.30;;;;;;4994841;28;20196;-25
2021/12/09 11:22:06;;;;;;;4.63;2.20;;;24.40;40.50;;;;;;4996412;28;20207;-27
2021/12/09 11:24:37;;;;;;;3.33;2.10;;;24.20;40.70;;;;;;4963619;28;20190;-25
2021/12/09 11:27:08;;;;;;;7.00;2.30;;;23.90;40.90;;;;;;4995808;28;20186;-24
2021/12/09 11:29:39;;;;;;;4.50;2.10;;;23.70;41.20;;;;;;4995504;28;20205;-24
2021/12/09 11:34:57;;;;;;;3.27;2.07;;;23.00;41.80;;;;;;4989022;28;20213;-25
2021/12/09 11:40:00;;;;;;;4.37;2.20;;;22.50;42.30;;;;;;4975360;28;20207;-26
2021/12/09 11:42:33;;;;;;;4.17;1.80;;;22.20;42.50;;;;;;4951864;28;20202;-24
2021/12/09 11:44:59;;;;;;;3.20;2.10;;;22.00;42.80;;;;;;4968688;28;20587;-26
2021/12/09 11:47:25;;;;;;;4.37;2.03;;;21.70;43.10;;;;;;4952580;28;20671;-25
2021/12/09 11:49:53;;;;;;;3.37;2.10;;;21.40;43.50;;;;;;4967541;28;20563;-26
2021/12/09 11:52:21;;;;;;;4.40;2.07;;;21.20;43.70;;;;;;4969072;28;20205;-22
2021/12/09 11:54:56;;;;;;;6.77;2.03;;;21.10;44.10;;;;;;4968443;28;20194;-25
2021/12/09 12:15:26;;;;;;;5.23;2.23;;;21.60;43.50;;;;;;4978423;28;20237;-22
2021/12/09 12:20:55;;;;;;;4.13;2.37;;;21.10;44.00;;;;;;4977680;28;20205;-22
2021/12/09 12:26:30;;;;;;;4.23;1.80;;;20.60;44.30;;;;;;4986609;28;20205;-24
2021/12/09 12:42:14;;;;;;;3.83;2.20;;;23.80;41.20;;;;;;4997239;28;20285;-25
2021/12/09 12:45:51;;;;;;;2.83;2.27;;;23.80;41.00;;;;;;4980363;28;20300;-27
2021/12/09 12:48:38;;;;;;;4.43;2.07;;;23.70;41.20;;;;;;4995028;28;20206;-24
2021/12/09 12:51:27;;;;;;;2.83;2.10;;;23.50;41.40;;;;;;4991880;28;20245;-23
2021/12/09 12:54:03;;;;;;;3.17;2.10;;;23.40;41.40;;;;;;4996242;28;20193;-23
2021/12/09 12:56:41;;;;;;;3.77;2.20;;;23.20;41.90;;;;;;4978898;28;20195;-26
2021/12/09 12:59:07;;;;;;;6.83;2.23;;;23.40;41.60;;;;;;4978457;28;20249;-23
2021/12/09 13:05:06;;;;;;;3.77;2.10;;;23.00;41.80;;;;;;4978845;28;20249;-24
2021/12/09 13:10:46;;;;;;;5.07;2.23;;;22.40;42.80;;;;;;4978442;28;20249;-24
2021/12/09 13:16:07;;;;;;;3.43;2.10;;;21.80;43.00;;;;;;4978020;28;20362;-24
2021/12/09 13:19:09;;;;;;;3.77;2.07;;;21.60;43.20;;;;;;4978038;28;20187;-21
2021/12/09 13:21:44;;;;;;;2.80;2.00;;;21.40;43.50;;;;;;4964020;28;20201;-22
2021/12/09 13:24:37;;;;;;;2.13;1.80;;;21.10;43.80;;;;;;4977656;28;20192;-22
2021/12/09 13:27:38;;;;;;;4.37;2.40;;;20.80;44.10;;;;;;4977474;28;20852;-26
2021/12/09 13:49:07;;;;;;;3.23;2.00;;;20.90;44.80;;;;;;4996412;28;20197;-23
2021/12/09 13:54:27;;;;;;;3.27;1.87;;;22.60;43.00;;;;;;4996693;28;20196;-26
2021/12/09 13:57:05;;;;;;;3.67;1.73;;;23.40;42.10;;;;;;4996838;28;20465;-23
2021/12/09 13:59:34;;;;;;;4.07;2.00;;;23.70;41.50;;;;;;4996465;28;20193;-25
2021/12/09 14:02:16;;;;;;;2.03;1.60;;;24.10;41.20;;;;;;4994181;28;20189;-22
2021/12/09 14:04:42;;;;;;;2.53;1.60;;;24.10;40.90;;;;;;4977659;28;20194;-24
2021/12/09 14:07:13;;;;;;;2.43;1.70;;;24.00;40.90;;;;;;4996306;28;20198;-24
2021/12/09 14:09:42;;;;;;;2.67;1.80;;;23.90;41.00;;;;;;4994663;28;20205;-23
2021/12/09 14:12:08;;;;;;;2.07;1.80;;;23.70;41.20;;;;;;4994783;28;20225;-25
2021/12/09 14:14:46;;;;;;;2.77;1.70;;;23.60;41.40;;;;;;4995536;28;20208;-24
2021/12/09 14:17:16;;;;;;;2.50;1.70;;;23.50;41.50;;;;;;4984242;28;20244;-25
2021/12/09 14:19:58;;;;;;;2.97;1.90;;;23.40;41.60;;;;;;4982199;28;20194;-24